Terminal Aerodrome Forecast
Issued by NWS

Home | Current Version | Previous Version | Text Only | Print | Product List | Glossary On
Versions: 1 2 3 4 5 6 7 8 9 10 11 12 13 14 15 16 17 18
000
FTUS46 KSEW 261600 AAB
TAFCLM
TAF AMD
KCLM 261657Z 2617/2712 00000KT 1/4SM FG VV001
     FM261800 VRB03KT P6SM SKC
     FM262300 VRB03KT P6SM BKN006 OVC012=

USA.gov is the U.S. government's official web portal to all federal, state and local government web resources and services.